Terminal Aerodrome Forecast
Issued by NWS

Home | Current Version | Previous Version | Graphics & Text | Print | Product List | Glossary On
Versions: 1 2 3 4 5 6 7 8 9 10 11 12 13 14 15 16 17 18 19 20 21 22 23 24 25 26 27 28 29 30 31 32 33 34 35 36
000
FTUS43 KGRB 241124
TAFRHI
TAF
KRHI 241124Z 2412/2512 VRB03KT P6SM BKN090
     FM241500 18009G15KT P6SM BKN070
     FM242200 16008KT P6SM -SHRA SCT030 OVC050
      TEMPO 2423/2502 5SM -RA BR OVC015
     FM250200 11007KT 3SM RA BR BKN006 OVC012=

USA.gov is the U.S. government's official web portal to all federal, state and local government web resources and services.